Time;durP1;ratioP1;P1;durP2;ratioP2;P2;SDS_P1;SDS_P2;PMS_P1;PMS_P2;Temp;Humidity;BMP_temperature;BMP_pressure;BME280_temperature;BME280_humidity;BME280_pressure;Samples;Min_cycle;Max_cycle;Signal;HPM_P1;HPM_P2
2022/10/03 00:00:56;;;;;;;0.00;0.00;;;11.90;99.90;;;;;;5039563;28;20469;-72
2022/10/03 00:03:34;;;;;;;0.00;0.00;;;11.90;99.90;;;;;;5036554;28;20966;-71
2022/10/03 00:06:10;;;;;;;0.00;0.00;;;11.90;99.90;;;;;;5036401;28;20836;-71
2022/10/03 00:09:09;;;;;;;0.00;0.00;;;11.80;99.90;;;;;;5036307;28;20486;-71
2022/10/03 00:11:52;;;;;;;0.00;0.00;;;11.80;99.90;;;;;;5036632;28;20487;-71
2022/10/03 00:14:32;;;;;;;0.00;0.00;;;11.70;99.90;;;;;;5036119;28;20476;-71
2022/10/03 00:17:06;;;;;;;0.00;0.00;;;11.70;99.90;;;;;;5036270;28;20503;-72
2022/10/03 00:19:42;;;;;;;0.00;0.00;;;11.70;99.90;;;;;;5035567;28;20891;-72
2022/10/03 00:22:20;;;;;;;0.00;0.00;;;11.70;99.90;;;;;;5036419;28;20444;-72
2022/10/03 00:24:59;;;;;;;0.00;0.00;;;11.70;99.90;;;;;;5036025;28;20441;-72
2022/10/03 00:27:33;;;;;;;0.00;0.00;;;11.70;99.90;;;;;;5036134;28;20920;-71
2022/10/03 00:30:13;;;;;;;0.00;0.00;;;11.80;99.90;;;;;;5035773;28;20453;-72
2022/10/03 00:32:57;;;;;;;0.00;0.00;;;11.80;99.90;;;;;;5036133;28;20448;-71
2022/10/03 00:35:42;;;;;;;0.00;0.00;;;12.00;99.90;;;;;;5036120;28;20449;-71
2022/10/03 00:38:34;;;;;;;0.00;0.00;;;12.00;99.90;;;;;;5035850;28;20788;-71
2022/10/03 00:41:31;;;;;;;0.00;0.00;;;12.00;99.90;;;;;;5036162;28;20538;-71
2022/10/03 00:44:47;;;;;;;0.00;0.00;;;12.00;99.90;;;;;;5035850;28;20437;-71
2022/10/03 00:47:30;;;;;;;0.00;0.00;;;12.00;99.90;;;;;;5035795;28;20451;-71
2022/10/03 00:50:27;;;;;;;0.00;0.00;;;12.10;99.90;;;;;;5035583;28;20453;-71
2022/10/03 00:53:12;;;;;;;0.00;0.00;;;12.20;99.90;;;;;;5035675;28;20524;-73
2022/10/03 00:56:03;;;;;;;0.00;0.00;;;12.20;99.90;;;;;;5035767;28;20803;-72
2022/10/03 00:59:01;;;;;;;0.00;0.00;;;12.30;99.90;;;;;;5035287;28;20499;-71
2022/10/03 01:01:35;;;;;;;0.00;0.00;;;12.30;99.90;;;;;;5035562;28;20472;-70
2022/10/03 01:04:16;;;;;;;0.00;0.00;;;12.20;99.90;;;;;;5035582;28;20471;-72
2022/10/03 01:06:49;;;;;;;0.00;0.00;;;12.20;99.90;;;;;;5035266;28;20432;-71
2022/10/03 01:09:42;;;;;;;0.00;0.00;;;12.20;99.90;;;;;;5035016;28;20499;-71
2022/10/03 01:12:35;;;;;;;0.00;0.00;;;12.20;99.90;;;;;;5035546;28;20441;-71
2022/10/03 01:15:19;;;;;;;0.00;0.00;;;12.20;99.90;;;;;;5023581;28;20482;-71
2022/10/03 01:17:59;;;;;;;0.00;0.00;;;12.30;99.90;;;;;;5017823;28;20445;-71
2022/10/03 01:20:35;;;;;;;0.00;0.00;;;12.40;99.90;;;;;;5027870;28;21043;-72
2022/10/03 01:23:25;;;;;;;0.00;0.00;;;12.50;99.90;;;;;;5035331;28;20490;-70
2022/10/03 01:26:02;;;;;;;0.00;0.00;;;12.50;99.90;;;;;;5028496;28;20453;-71
2022/10/03 01:31:37;;;;;;;0.00;0.00;;;12.60;99.90;;;;;;5026550;28;20554;-69
2022/10/03 01:34:11;;;;;;;0.00;0.00;;;12.60;99.90;;;;;;5032002;28;20839;-70
2022/10/03 01:36:48;;;;;;;0.00;0.00;;;12.50;99.90;;;;;;5017343;28;20423;-71
2022/10/03 01:39:21;;;;;;;0.00;0.00;;;12.40;99.90;;;;;;5034825;28;20499;-73
2022/10/03 01:41:57;;;;;;;0.00;0.00;;;12.30;99.90;;;;;;5034317;28;20472;-72
2022/10/03 01:44:31;;;;;;;0.00;0.00;;;12.20;99.90;;;;;;5035237;28;20441;-71
2022/10/03 01:47:15;;;;;;;0.00;0.00;;;12.10;99.90;;;;;;5030975;28;20941;-71
2022/10/03 01:49:48;;;;;;;0.00;0.00;;;12.00;99.90;;;;;;5014504;28;20462;-72
2022/10/03 01:52:25;;;;;;;0.00;0.00;;;11.90;99.90;;;;;;5020415;28;20445;-72
2022/10/03 01:55:03;;;;;;;0.00;0.00;;;11.80;99.90;;;;;;5034856;28;20549;-72
2022/10/03 01:57:38;;;;;;;0.00;0.00;;;11.80;99.90;;;;;;5034477;28;20445;-72
2022/10/03 02:00:13;;;;;;;0.00;0.00;;;11.70;99.90;;;;;;5034252;28;20859;-72
2022/10/03 02:02:46;;;;;;;0.00;0.00;;;11.60;99.90;;;;;;5034410;28;20437;-72
2022/10/03 02:05:22;;;;;;;0.00;0.00;;;11.60;99.90;;;;;;5033501;28;20437;-72
2022/10/03 02:07:55;;;;;;;0.00;0.00;;;11.50;99.90;;;;;;5014665;28;20434;-72
2022/10/03 02:10:32;;;;;;;0.00;0.00;;;11.60;99.90;;;;;;5015708;28;20500;-72
2022/10/03 02:13:08;;;;;;;0.00;0.00;;;11.60;99.90;;;;;;5014830;28;20441;-73
2022/10/03 02:19:02;;;;;;;0.00;0.00;;;11.50;99.90;;;;;;5902905;22;20486;-89
2022/10/03 02:21:32;;;;;;;0.00;0.00;;;11.50;99.90;;;;;;5058298;28;20463;-90
2022/10/03 02:24:18;;;;;;;0.00;0.00;;;11.40;99.90;;;;;;5059450;28;20443;-90
2022/10/03 02:27:20;;;;;;;0.00;0.00;;;11.40;99.90;;;;;;5060172;28;20478;-89
2022/10/03 02:30:13;;;;;;;0.00;0.00;;;11.40;99.90;;;;;;5060324;28;20483;-90
2022/10/03 02:33:14;;;;;;;0.00;0.00;;;11.30;99.90;;;;;;5060510;28;20486;-90
2022/10/03 02:36:10;;;;;;;0.00;0.00;;;11.20;99.90;;;;;;5032839;28;20485;-90
2022/10/03 02:39:18;;;;;;;0.00;0.00;;;11.10;99.90;;;;;;5042101;28;20465;-90
2022/10/03 02:42:19;;;;;;;0.00;0.00;;;11.10;99.90;;;;;;5041614;28;20519;-90
2022/10/03 02:45:10;;;;;;;0.00;0.00;;;11.10;99.90;;;;;;5044306;28;20436;-90
2022/10/03 02:48:10;;;;;;;0.00;0.00;;;11.00;99.90;;;;;;5059128;28;20500;-90
2022/10/03 02:51:28;;;;;;;0.00;0.00;;;11.00;99.90;;;;;;5058741;28;20453;-85
2022/10/03 02:54:26;;;;;;;0.00;0.00;;;11.10;99.90;;;;;;5068816;28;20441;-90
2022/10/03 02:57:38;;;;;;;0.00;0.00;;;11.10;99.90;;;;;;5039924;28;20442;-90
2022/10/03 03:00:10;;;;;;;0.00;0.00;;;11.10;99.90;;;;;;5038570;28;20475;-89
2022/10/03 03:03:03;;;;;;;0.00;0.00;;;11.00;99.90;;;;;;5038615;28;20495;-89
2022/10/03 03:06:28;;;;;;;0.00;0.00;;;11.00;99.90;;;;;;5038675;28;20951;-89
2022/10/03 03:09:22;;;;;;;0.00;0.00;;;10.90;99.90;;;;;;5038204;28;20449;-89
2022/10/03 03:12:14;;;;;;;0.00;0.00;;;10.90;99.90;;;;;;5037102;28;20452;-89
2022/10/03 03:15:11;;;;;;;0.00;0.00;;;10.90;99.90;;;;;;5038127;28;20548;-87
2022/10/03 03:17:49;;;;;;;0.00;0.00;;;10.90;99.90;;;;;;5038445;28;20437;-89
2022/10/03 03:20:32;;;;;;;0.00;0.00;;;10.90;99.90;;;;;;5039256;28;20484;-89
2022/10/03 03:23:32;;;;;;;0.00;0.00;;;10.80;99.90;;;;;;5058920;28;20448;-89
2022/10/03 03:26:31;;;;;;;0.00;0.00;;;10.80;99.90;;;;;;5057294;28;20791;-89
2022/10/03 03:29:12;;;;;;;0.00;0.00;;;10.80;99.90;;;;;;5021231;28;20455;-89
2022/10/03 03:31:53;;;;;;;0.00;0.00;;;10.80;99.90;;;;;;5058221;28;20441;-89
2022/10/03 03:34:27;;;;;;;0.00;0.00;;;10.70;99.90;;;;;;5049794;28;20461;-88
2022/10/03 03:37:00;;;;;;;0.00;0.00;;;10.70;99.90;;;;;;5037586;28;20449;-88
2022/10/03 03:39:44;;;;;;;0.00;0.00;;;10.70;99.90;;;;;;5046166;28;20476;-88
2022/10/03 03:42:38;;;;;;;0.00;0.00;;;10.70;99.90;;;;;;5057757;28;20456;-89
2022/10/03 03:45:19;;;;;;;0.00;0.00;;;10.70;99.90;;;;;;5057861;28;20455;-88
2022/10/03 03:48:02;;;;;;;0.00;0.00;;;10.70;99.90;;;;;;5057914;28;20436;-88
2022/10/03 03:50:42;;;;;;;0.00;0.00;;;10.60;99.90;;;;;;5057688;28;20472;-88
2022/10/03 03:53:38;;;;;;;0.00;0.00;;;10.60;99.90;;;;;;5059012;28;20810;-89
2022/10/03 03:56:21;;;;;;;0.00;0.00;;;10.60;99.90;;;;;;5069771;28;20526;-88
2022/10/03 03:59:01;;;;;;;0.00;0.00;;;10.60;99.90;;;;;;5045964;28;20461;-89
2022/10/03 04:01:47;;;;;;;0.00;0.00;;;10.60;99.90;;;;;;5039042;28;20480;-88
2022/10/03 04:04:39;;;;;;;0.00;0.00;;;10.60;99.90;;;;;;5037595;28;20448;-89
2022/10/03 04:07:18;;;;;;;0.00;0.00;;;10.60;99.90;;;;;;5037668;28;20472;-88
2022/10/03 04:10:07;;;;;;;0.00;0.00;;;10.60;99.90;;;;;;5043890;28;21069;-88
2022/10/03 04:12:54;;;;;;;0.00;0.00;;;10.60;99.90;;;;;;5044322;28;21015;-88
2022/10/03 04:15:55;;;;;;;0.00;0.00;;;10.60;99.90;;;;;;5056912;28;20571;-89
2022/10/03 04:18:57;;;;;;;0.00;0.00;;;10.60;99.90;;;;;;5057503;28;20448;-88
2022/10/03 04:21:58;;;;;;;0.00;0.00;;;10.60;99.90;;;;;;5031680;28;20907;-87
2022/10/03 04:25:04;;;;;;;0.00;0.00;;;10.60;99.90;;;;;;5046871;28;20449;-87
2022/10/03 04:28:04;;;;;;;0.00;0.00;;;10.50;99.90;;;;;;5038271;28;20961;-87
2022/10/03 04:30:41;;;;;;;0.00;0.00;;;10.50;99.90;;;;;;5056081;28;20460;-87
2022/10/03 04:33:30;;;;;;;0.00;0.00;;;10.60;99.90;;;;;;5036311;28;20850;-88
2022/10/03 04:36:32;;;;;;;0.00;0.00;;;10.50;99.90;;;;;;5036012;28;20461;-87
2022/10/03 04:39:08;;;;;;;0.00;0.00;;;10.50;99.90;;;;;;5051431;28;20443;-87
2022/10/03 04:41:42;;;;;;;0.00;0.00;;;10.50;99.90;;;;;;5059888;28;20538;-84
2022/10/03 04:44:26;;;;;;;0.00;0.00;;;10.50;99.90;;;;;;5059051;28;20796;-87
2022/10/03 04:46:59;;;;;;;0.00;0.00;;;10.50;99.90;;;;;;5058827;28;20443;-87
2022/10/03 04:49:35;;;;;;;0.00;0.00;;;10.50;99.90;;;;;;5057993;28;20569;-88
2022/10/03 04:52:13;;;;;;;0.00;0.00;;;10.50;99.90;;;;;;5059321;28;20876;-88
2022/10/03 04:54:51;;;;;;;0.00;0.00;;;10.50;99.90;;;;;;5060373;28;20455;-88
2022/10/03 04:57:28;;;;;;;0.00;0.00;;;10.40;99.90;;;;;;5060268;28;20483;-88
2022/10/03 05:00:08;;;;;;;0.00;0.00;;;10.40;99.90;;;;;;5066937;28;20446;-87
2022/10/03 05:02:47;;;;;;;0.00;0.00;;;10.40;99.90;;;;;;5071149;28;20433;-88
2022/10/03 05:05:27;;;;;;;0.00;0.00;;;10.40;99.90;;;;;;5039795;28;20466;-88
2022/10/03 05:08:07;;;;;;;0.00;0.00;;;10.30;99.90;;;;;;5039302;28;20946;-87
2022/10/03 05:10:52;;;;;;;0.00;0.00;;;10.30;99.90;;;;;;5038712;28;20465;-87
2022/10/03 05:13:32;;;;;;;0.00;0.00;;;10.40;99.90;;;;;;5039101;28;20432;-87
2022/10/03 05:16:09;;;;;;;0.00;0.00;;;10.40;99.90;;;;;;5039813;28;20504;-87
2022/10/03 05:18:45;;;;;;;0.00;0.00;;;10.40;99.90;;;;;;5039328;28;20457;-87
2022/10/03 05:21:16;;;;;;;0.00;0.00;;;10.30;99.90;;;;;;5050628;28;20483;-87
2022/10/03 05:24:01;;;;;;;0.00;0.00;;;10.40;99.90;;;;;;5058079;28;20433;-87
2022/10/03 05:26:41;;;;;;;0.00;0.00;;;10.40;99.90;;;;;;5058532;28;20515;-87
2022/10/03 05:29:23;;;;;;;0.00;0.00;;;10.40;99.90;;;;;;5048754;28;20479;-87
2022/10/03 05:32:06;;;;;;;0.00;0.00;;;10.50;99.90;;;;;;5039167;28;20429;-87
2022/10/03 05:34:47;;;;;;;0.00;0.00;;;10.50;99.90;;;;;;5048998;28;20447;-87
2022/10/03 05:37:40;;;;;;;0.00;0.00;;;10.50;99.90;;;;;;5059493;28;20476;-87
2022/10/03 05:40:23;;;;;;;0.00;0.00;;;10.60;99.90;;;;;;5049965;28;20864;-90
2022/10/03 05:43:49;;;;;;;0.00;0.00;;;10.60;99.90;;;;;;5044566;28;20459;-90
2022/10/03 05:46:41;;;;;;;0.00;0.00;;;10.60;99.90;;;;;;4960180;29;20510;-90
2022/10/03 05:53:02;;;;;;;0.00;0.00;;;10.60;99.90;;;;;;4947547;28;20543;-90
2022/10/03 05:55:58;;;;;;;0.00;0.00;;;10.60;99.90;;;;;;5051991;28;20523;-89
2022/10/03 05:58:56;;;;;;;0.00;0.00;;;10.60;99.90;;;;;;5043272;28;20438;-91
2022/10/03 06:02:22;;;;;;;0.00;0.00;;;10.70;99.90;;;;;;5049338;28;20809;-89
2022/10/03 06:05:23;;;;;;;0.00;0.00;;;10.60;99.90;;;;;;5064788;28;20444;-88
2022/10/03 06:12:45;;;;;;;0.00;0.00;;;10.70;99.90;;;;;;4967771;28;20456;-89
2022/10/03 06:15:56;;;;;;;0.00;0.00;;;10.80;99.90;;;;;;4906617;29;20447;-89
2022/10/03 06:19:05;;;;;;;0.00;0.00;;;10.90;99.90;;;;;;4909700;29;20444;-91
2022/10/03 06:22:15;;;;;;;0.00;0.00;;;11.10;99.90;;;;;;5072925;22;20503;-70
2022/10/03 06:25:20;;;;;;;0.00;0.00;;;11.30;99.90;;;;;;5061958;28;20471;-69
2022/10/03 06:28:27;;;;;;;0.00;0.00;;;11.40;99.90;;;;;;5061438;28;20471;-69
2022/10/03 06:31:33;;;;;;;0.00;0.00;;;11.50;99.90;;;;;;5055655;28;20456;-70
2022/10/03 06:34:31;;;;;;;0.00;0.00;;;11.60;99.90;;;;;;5050068;28;20518;-72
2022/10/03 06:37:50;;;;;;;0.00;0.00;;;11.80;99.90;;;;;;5037689;28;20483;-69
2022/10/03 06:40:59;;;;;;;0.00;0.00;;;11.90;99.90;;;;;;4985237;28;20506;-69
2022/10/03 06:43:45;;;;;;;0.00;0.00;;;12.00;99.90;;;;;;4958200;28;20967;-68
2022/10/03 06:46:39;;;;;;;0.00;0.00;;;12.10;99.90;;;;;;5008199;28;20442;-69
2022/10/03 06:49:37;;;;;;;0.00;0.00;;;12.20;99.90;;;;;;5014707;28;20453;-69
2022/10/03 06:52:25;;;;;;;0.00;0.00;;;12.40;99.90;;;;;;5013791;28;20537;-70
2022/10/03 06:55:43;;;;;;;0.00;0.00;;;12.50;99.90;;;;;;5024912;28;20444;-69
2022/10/03 06:58:39;;;;;;;0.00;0.00;;;12.60;99.90;;;;;;5049440;28;20816;-69
2022/10/03 07:01:37;;;;;;;0.00;0.00;;;12.70;99.90;;;;;;5014248;28;20485;-71
2022/10/03 07:04:37;;;;;;;0.00;0.00;;;12.70;99.90;;;;;;5013094;28;20497;-69
2022/10/03 07:07:27;;;;;;;0.00;0.00;;;12.60;99.90;;;;;;5014946;28;20454;-69
2022/10/03 07:10:16;;;;;;;0.00;0.00;;;12.50;99.90;;;;;;5014903;28;20489;-68
2022/10/03 07:13:10;;;;;;;0.00;0.00;;;12.50;99.90;;;;;;5014027;28;20442;-69
2022/10/03 07:16:07;;;;;;;0.00;0.00;;;12.50;99.90;;;;;;5008858;28;20458;-69
2022/10/03 07:19:29;;;;;;;0.00;0.00;;;12.40;99.90;;;;;;5018167;28;20473;-70
2022/10/03 07:22:26;;;;;;;0.00;0.00;;;12.30;99.90;;;;;;4977421;28;20946;-74
2022/10/03 07:25:27;;;;;;;0.00;0.00;;;12.40;99.90;;;;;;4983914;28;20463;-71
2022/10/03 07:28:12;;;;;;;0.00;0.00;;;12.50;99.90;;;;;;4998815;28;20550;-72
2022/10/03 07:30:55;;;;;;;0.00;0.00;;;12.60;99.90;;;;;;4983338;28;20477;-69
2022/10/03 07:33:52;;;;;;;0.00;0.00;;;12.70;99.90;;;;;;5008674;28;20481;-71
2022/10/03 07:39:50;;;;;;;0.00;0.00;;;12.90;99.90;;;;;;5012578;28;20438;-72
2022/10/03 07:42:46;;;;;;;0.00;0.00;;;13.00;99.90;;;;;;5028901;28;20448;-71
2022/10/03 07:45:40;;;;;;;0.00;0.00;;;12.90;99.90;;;;;;5023467;28;20453;-72
2022/10/03 07:48:57;;;;;;;0.00;0.00;;;13.00;99.90;;;;;;5003593;28;20509;-71
2022/10/03 07:51:36;;;;;;;0.00;0.00;;;13.10;99.90;;;;;;4982660;28;20897;-71
2022/10/03 07:54:33;;;;;;;0.00;0.00;;;13.20;99.90;;;;;;5026812;28;21031;-70
2022/10/03 07:57:40;;;;;;;0.00;0.00;;;13.20;99.90;;;;;;5032616;28;20469;-72
2022/10/03 08:00:21;;;;;;;0.00;0.00;;;13.40;99.90;;;;;;5025603;28;20874;-71
2022/10/03 08:03:47;;;;;;;0.00;0.00;;;13.50;99.90;;;;;;5032563;28;20449;-71
2022/10/03 08:06:19;;;;;;;0.00;0.00;;;13.50;99.90;;;;;;5012945;28;20454;-71
2022/10/03 08:09:26;;;;;;;0.00;0.00;;;13.60;99.90;;;;;;5011497;28;20473;-72
2022/10/03 08:12:45;;;;;;;0.00;0.00;;;13.60;99.90;;;;;;5004474;28;20941;-68
2022/10/03 08:15:29;;;;;;;0.00;0.00;;;13.70;99.90;;;;;;5032673;28;20815;-68
2022/10/03 08:18:40;;;;;;;0.00;0.00;;;13.70;99.90;;;;;;5050561;28;20502;-68
2022/10/03 08:21:10;;;;;;;0.00;0.00;;;13.80;99.90;;;;;;5012924;28;20481;-69
2022/10/03 08:24:10;;;;;;;0.00;0.00;;;13.90;99.90;;;;;;5046445;28;20432;-68
2022/10/03 08:27:09;;;;;;;0.00;0.00;;;13.90;99.90;;;;;;5041913;28;20452;-68
2022/10/03 08:30:02;;;;;;;0.00;0.00;;;14.10;99.90;;;;;;5037547;28;20987;-68
2022/10/03 08:32:59;;;;;;;0.00;0.00;;;14.40;99.90;;;;;;5030930;28;20975;-70
2022/10/03 08:35:59;;;;;;;0.00;0.00;;;14.60;99.90;;;;;;5018603;28;20949;-68
2022/10/03 08:38:48;;;;;;;0.00;0.00;;;14.80;99.90;;;;;;5015797;28;20482;-68
2022/10/03 08:41:52;;;;;;;0.00;0.00;;;14.90;99.90;;;;;;5016095;28;20478;-68
2022/10/03 08:45:13;;;;;;;0.00;0.00;;;15.00;99.90;;;;;;5018572;28;20504;-68
2022/10/03 08:48:14;;;;;;;0.00;0.00;;;15.30;99.90;;;;;;5021530;28;20457;-68
2022/10/03 08:51:04;;;;;;;0.00;0.00;;;15.40;99.90;;;;;;5024312;28;20464;-68
2022/10/03 08:54:09;;;;;;;0.00;0.00;;;15.60;99.90;;;;;;5026594;28;20455;-73
2022/10/03 08:56:51;;;;;;;0.00;0.00;;;15.80;99.90;;;;;;4965770;28;20472;-73
2022/10/03 08:59:49;;;;;;;0.00;0.00;;;15.80;99.90;;;;;;5029161;28;20453;-73
2022/10/03 09:03:06;;;;;;;0.00;0.00;;;15.80;99.90;;;;;;5020967;28;20518;-74
2022/10/03 09:06:43;;;;;;;0.00;0.00;;;15.90;99.90;;;;;;5026178;28;20543;-69
2022/10/03 09:10:00;;;;;;;0.00;0.00;;;16.00;99.90;;;;;;5029189;28;20461;-69
2022/10/03 09:12:58;;;;;;;0.00;0.00;;;16.10;99.90;;;;;;5009273;28;20547;-69
2022/10/03 09:15:58;;;;;;;0.00;0.00;;;16.20;99.90;;;;;;5028494;28;20456;-72
2022/10/03 09:18:50;;;;;;;0.00;0.00;;;16.30;99.90;;;;;;5014648;28;20532;-73
2022/10/03 09:22:06;;;;;;;0.00;0.00;;;16.30;99.90;;;;;;5017491;28;20501;-72
2022/10/03 09:25:04;;;;;;;0.00;0.00;;;16.30;99.90;;;;;;5037427;28;20935;-72
2022/10/03 09:28:00;;;;;;;0.00;0.00;;;16.30;99.90;;;;;;5025809;28;20462;-73
2022/10/03 09:30:40;;;;;;;0.00;0.00;;;16.40;99.90;;;;;;5024605;28;20466;-72
2022/10/03 09:33:38;;;;;;;0.00;0.00;;;16.50;99.90;;;;;;5024262;28;20547;-73
2022/10/03 09:36:38;;;;;;;0.00;0.00;;;16.50;99.90;;;;;;5015872;28;20480;-73
2022/10/03 09:39:32;;;;;;;0.00;0.00;;;16.50;99.90;;;;;;5015460;28;20520;-72
2022/10/03 09:42:36;;;;;;;0.00;0.00;;;16.60;99.90;;;;;;5029568;28;20532;-73
2022/10/03 09:45:36;;;;;;;0.00;0.00;;;16.70;99.90;;;;;;5050670;28;20465;-73
2022/10/03 09:48:31;;;;;;;0.00;0.00;;;16.80;99.90;;;;;;5052692;28;20877;-73
2022/10/03 09:51:25;;;;;;;0.00;0.00;;;16.90;99.90;;;;;;5037561;28;20556;-72
2022/10/03 09:54:33;;;;;;;0.00;0.00;;;16.80;99.90;;;;;;5015434;28;20513;-73
2022/10/03 09:57:28;;;;;;;0.00;0.00;;;16.90;99.90;;;;;;5015186;28;20465;-73
2022/10/03 10:00:20;;;;;;;0.00;0.00;;;16.90;99.90;;;;;;5015508;28;21043;-73
2022/10/03 10:03:40;;;;;;;0.00;0.00;;;17.00;99.90;;;;;;5022643;28;20448;-72
2022/10/03 10:06:36;;;;;;;0.00;0.00;;;16.90;99.90;;;;;;5052572;28;20437;-72
2022/10/03 10:09:38;;;;;;;0.00;0.00;;;17.00;99.90;;;;;;5034626;28;20445;-72
2022/10/03 10:12:37;;;;;;;0.00;0.00;;;17.10;99.90;;;;;;5054924;28;20465;-73
2022/10/03 10:15:49;;;;;;;0.00;0.00;;;17.20;99.90;;;;;;5031503;28;20461;-72
2022/10/03 10:18:53;;;;;;;0.00;0.00;;;17.20;99.90;;;;;;5032257;28;20505;-71
2022/10/03 10:21:40;;;;;;;0.00;0.00;;;17.20;99.90;;;;;;5008867;28;20485;-73
2022/10/03 10:24:38;;;;;;;0.00;0.00;;;17.30;99.90;;;;;;5015318;28;20874;-78
2022/10/03 10:27:48;;;;;;;0.00;0.00;;;17.30;99.90;;;;;;5035044;28;20437;-71
2022/10/03 10:30:41;;;;;;;0.00;0.00;;;17.40;99.90;;;;;;5042375;28;20514;-73
2022/10/03 10:34:00;;;;;;;0.00;0.00;;;17.20;99.90;;;;;;5049583;28;20845;-72
2022/10/03 10:37:15;;;;;;;0.00;0.00;;;16.80;99.90;;;;;;5000453;28;20514;-73
2022/10/03 10:40:25;;;;;;;0.00;0.00;;;16.50;99.90;;;;;;5048489;28;20475;-73
2022/10/03 10:43:26;;;;;;;0.00;0.00;;;16.50;99.90;;;;;;5044934;28;20451;-73
2022/10/03 10:46:17;;;;;;;0.00;0.00;;;16.40;99.90;;;;;;5013839;28;20455;-73
2022/10/03 10:49:24;;;;;;;0.00;0.00;;;16.50;99.90;;;;;;5027972;28;20497;-71
2022/10/03 10:52:21;;;;;;;0.00;0.00;;;16.70;99.90;;;;;;5027718;28;20790;-69
2022/10/03 10:55:50;;;;;;;0.00;0.00;;;17.00;99.90;;;;;;5033710;28;20441;-69
2022/10/03 10:59:14;;;;;;;0.00;0.00;;;17.10;99.90;;;;;;5017610;28;20550;-69
2022/10/03 11:02:12;;;;;;;0.00;0.00;;;17.20;99.90;;;;;;5027460;28;20458;-69
2022/10/03 11:05:21;;;;;;;0.00;0.00;;;16.80;99.90;;;;;;5002000;28;20451;-70
2022/10/03 11:08:43;;;;;;;0.00;0.00;;;16.50;99.90;;;;;;5000029;28;20809;-69
2022/10/03 11:12:05;;;;;;;0.00;0.00;;;16.30;99.90;;;;;;5014089;28;20561;-72
2022/10/03 11:15:05;;;;;;;0.00;0.00;;;16.30;99.90;;;;;;5012388;28;20514;-73
2022/10/03 11:18:05;;;;;;;0.00;0.00;;;16.30;99.90;;;;;;5013614;28;20956;-70
2022/10/03 11:21:10;;;;;;;0.00;0.00;;;16.40;99.90;;;;;;5041309;28;20482;-70
2022/10/03 11:24:08;;;;;;;0.00;0.00;;;16.50;99.90;;;;;;5042853;28;20452;-70
2022/10/03 11:27:21;;;;;;;0.00;0.00;;;16.60;99.90;;;;;;5044213;28;20437;-71
2022/10/03 11:30:29;;;;;;;0.00;0.00;;;16.80;99.90;;;;;;5040805;28;20457;-70
2022/10/03 11:33:34;;;;;;;0.00;0.00;;;17.00;99.90;;;;;;5041660;28;20452;-70
2022/10/03 11:36:38;;;;;;;0.00;0.00;;;17.10;99.90;;;;;;5046947;28;20520;-70
2022/10/03 11:39:14;;;;;;;0.00;0.00;;;17.10;99.90;;;;;;5043632;28;20464;-69
2022/10/03 11:41:51;;;;;;;0.00;0.00;;;17.10;99.90;;;;;;5045012;28;20436;-71
2022/10/03 11:44:24;;;;;;;0.00;0.00;;;17.00;99.90;;;;;;5035701;28;20454;-71
2022/10/03 11:47:19;;;;;;;0.00;0.00;;;17.00;99.90;;;;;;5013621;28;20446;-71
2022/10/03 11:50:14;;;;;;;0.00;0.00;;;16.90;99.90;;;;;;5016931;28;20835;-70
2022/10/03 11:52:56;;;;;;;0.00;0.00;;;16.80;99.90;;;;;;5020379;28;20463;-70
2022/10/03 11:55:32;;;;;;;0.00;0.00;;;16.70;99.90;;;;;;5019941;28;20455;-70
2022/10/03 11:58:21;;;;;;;0.00;0.00;;;16.80;99.90;;;;;;5018811;28;20478;-70
2022/10/03 12:00:58;;;;;;;0.00;0.00;;;17.00;99.90;;;;;;5019253;28;20451;-73
2022/10/03 12:03:30;;;;;;;0.00;0.00;;;17.20;99.90;;;;;;5019736;28;20439;-71
2022/10/03 12:09:01;;;;;;;0.00;0.00;;;17.70;99.90;;;;;;4981186;28;20450;-72
2022/10/03 12:11:37;;;;;;;0.00;0.00;;;17.90;99.90;;;;;;5019307;28;20478;-76
2022/10/03 12:14:22;;;;;;;0.00;0.00;;;17.90;99.90;;;;;;5022702;28;20533;-76
2022/10/03 12:17:08;;;;;;;0.00;0.00;;;18.00;99.90;;;;;;5016911;28;20986;-77
2022/10/03 12:19:45;;;;;;;0.00;0.00;;;18.00;99.90;;;;;;5016633;28;20528;-76
2022/10/03 12:22:25;;;;;;;0.00;0.00;;;18.00;99.90;;;;;;5018677;28;20506;-74
2022/10/03 12:24:55;;;;;;;0.00;0.00;;;17.90;99.90;;;;;;5023636;28;20455;-74
2022/10/03 12:27:32;;;;;;;0.00;0.00;;;17.80;99.90;;;;;;5030836;28;20461;-76
2022/10/03 12:30:13;;;;;;;0.00;0.00;;;17.90;99.90;;;;;;5048198;28;20461;-75
2022/10/03 12:32:51;;;;;;;0.00;0.00;;;17.80;99.90;;;;;;5050640;28;20466;-76
2022/10/03 12:35:35;;;;;;;0.00;0.00;;;17.80;99.90;;;;;;5056157;28;20793;-76
2022/10/03 12:38:17;;;;;;;0.00;0.00;;;17.80;99.90;;;;;;5033193;28;20824;-76
2022/10/03 12:40:52;;;;;;;0.00;0.00;;;17.90;99.90;;;;;;5018445;28;20490;-76
2022/10/03 12:43:37;;;;;;;0.00;0.00;;;17.90;99.90;;;;;;5029125;28;20469;-77
2022/10/03 12:46:12;;;;;;;0.00;0.00;;;17.90;99.90;;;;;;5034604;28;20458;-77
2022/10/03 12:48:47;;;;;;;0.00;0.00;;;17.90;99.90;;;;;;5019334;28;20765;-77
2022/10/03 12:51:32;;;;;;;0.00;0.00;;;17.90;99.90;;;;;;5019861;28;20477;-77
2022/10/03 12:54:09;;;;;;;0.00;0.00;;;18.00;99.90;;;;;;5020082;28;20442;-76
2022/10/03 12:56:45;;;;;;;0.00;0.00;;;17.90;99.90;;;;;;5020036;28;20859;-77
2022/10/03 12:59:23;;;;;;;0.00;0.00;;;18.00;99.90;;;;;;5019702;28;20482;-77
2022/10/03 13:02:12;;;;;;;0.00;0.00;;;18.00;99.90;;;;;;5023555;28;20472;-77
2022/10/03 13:04:46;;;;;;;0.00;0.00;;;18.00;99.90;;;;;;5018632;28;20468;-77
2022/10/03 13:07:24;;;;;;;0.00;0.00;;;17.90;99.90;;;;;;5026397;28;20446;-77
2022/10/03 13:10:00;;;;;;;0.00;0.00;;;17.90;99.90;;;;;;5035348;28;20505;-77
2022/10/03 13:12:39;;;;;;;0.00;0.00;;;17.80;99.90;;;;;;5035548;28;20430;-77
2022/10/03 13:15:47;;;;;;;0.00;0.00;;;17.70;99.90;;;;;;5035386;28;20537;-77
2022/10/03 13:18:30;;;;;;;0.00;0.00;;;17.40;99.90;;;;;;5030609;28;20831;-76
2022/10/03 13:21:08;;;;;;;0.00;0.00;;;17.20;99.90;;;;;;5018537;28;20493;-77
2022/10/03 13:24:00;;;;;;;0.00;0.00;;;17.20;99.90;;;;;;5020243;28;20518;-76
2022/10/03 13:26:42;;;;;;;0.00;0.00;;;17.20;99.90;;;;;;5035637;28;20476;-77
2022/10/03 13:29:22;;;;;;;0.00;0.00;;;17.20;99.90;;;;;;5027220;28;20860;-74
2022/10/03 13:32:07;;;;;;;0.00;0.00;;;17.30;99.90;;;;;;5015107;28;20439;-73
2022/10/03 13:34:47;;;;;;;0.00;0.00;;;17.20;99.90;;;;;;5026816;28;20889;-75
2022/10/03 13:37:24;;;;;;;0.00;0.00;;;17.30;99.90;;;;;;5031080;28;20441;-73
2022/10/03 13:39:53;;;;;;;0.00;0.00;;;17.30;99.90;;;;;;5014712;28;20479;-75
2022/10/03 13:42:31;;;;;;;0.00;0.00;;;17.30;99.90;;;;;;5015146;28;20513;-72
2022/10/03 13:45:03;;;;;;;0.00;0.00;;;17.30;99.90;;;;;;5029895;28;20528;-72
2022/10/03 13:47:44;;;;;;;0.00;0.00;;;17.30;99.90;;;;;;5028780;28;20998;-71
2022/10/03 13:50:19;;;;;;;0.00;0.00;;;17.40;99.90;;;;;;5046319;28;20463;-72
2022/10/03 13:52:53;;;;;;;0.00;0.00;;;17.30;99.90;;;;;;5014877;28;20456;-71
2022/10/03 13:55:34;;;;;;;0.00;0.00;;;17.40;99.90;;;;;;5049154;28;20451;-71
2022/10/03 13:58:20;;;;;;;0.00;0.00;;;17.40;99.90;;;;;;5049831;28;20446;-71
2022/10/03 14:00:59;;;;;;;0.00;0.00;;;17.50;99.90;;;;;;5050832;28;21038;-71
2022/10/03 14:03:40;;;;;;;0.00;0.00;;;17.60;99.90;;;;;;5053538;28;20885;-71
2022/10/03 14:06:17;;;;;;;0.00;0.00;;;17.60;99.90;;;;;;5054106;28;20501;-72
2022/10/03 14:09:16;;;;;;;0.00;0.00;;;17.50;99.90;;;;;;5042670;28;21008;-71
2022/10/03 14:11:49;;;;;;;0.00;0.00;;;17.50;99.90;;;;;;5031680;28;20915;-71
2022/10/03 14:14:45;;;;;;;0.00;0.00;;;17.40;99.90;;;;;;5028799;28;20459;-71
2022/10/03 14:17:18;;;;;;;0.00;0.00;;;17.50;99.90;;;;;;5028914;28;20448;-73
2022/10/03 14:20:05;;;;;;;0.00;0.00;;;17.50;99.90;;;;;;5032349;28;20552;-69
2022/10/03 14:23:10;;;;;;;0.00;0.00;;;17.40;99.90;;;;;;5034138;28;20798;-70
2022/10/03 14:25:46;;;;;;;0.00;0.00;;;17.30;99.90;;;;;;5017818;28;20454;-70
2022/10/03 14:28:20;;;;;;;0.00;0.00;;;17.40;99.90;;;;;;5053697;28;20440;-70
2022/10/03 14:30:58;;;;;;;0.00;0.00;;;17.30;99.90;;;;;;5021992;28;20492;-73
2022/10/03 14:33:43;;;;;;;0.00;0.00;;;17.40;99.90;;;;;;5020558;28;20529;-73
2022/10/03 14:36:24;;;;;;;0.00;0.00;;;17.40;99.90;;;;;;5026618;28;20456;-75
2022/10/03 14:39:02;;;;;;;0.00;0.00;;;17.40;99.90;;;;;;5015767;28;20451;-75
2022/10/03 14:41:46;;;;;;;0.00;0.00;;;17.40;99.90;;;;;;5028877;28;20518;-77
2022/10/03 14:44:20;;;;;;;0.00;0.00;;;17.50;99.90;;;;;;5025276;28;20437;-75
2022/10/03 14:46:55;;;;;;;0.00;0.00;;;17.40;99.90;;;;;;5013905;28;20449;-75
2022/10/03 14:49:27;;;;;;;0.00;0.00;;;17.40;99.90;;;;;;5016399;28;20815;-75
2022/10/03 14:52:27;;;;;;;0.00;0.00;;;17.50;99.90;;;;;;5020901;28;20463;-75
2022/10/03 14:54:57;;;;;;;0.00;0.00;;;17.40;99.90;;;;;;5015304;28;20457;-75
2022/10/03 14:57:32;;;;;;;0.00;0.00;;;17.40;99.90;;;;;;5012137;28;20514;-76
2022/10/03 15:00:26;;;;;;;0.00;0.00;;;17.30;99.90;;;;;;5014980;28;20561;-76
2022/10/03 15:02:54;;;;;;;0.00;0.00;;;17.30;99.90;;;;;;5022823;28;20537;-76
2022/10/03 15:05:33;;;;;;;0.00;0.00;;;17.20;99.90;;;;;;5016711;28;20452;-73